METAR OBSERVATIONS
Looking Back 6 hours

  • KPBF 192153Z AUTO 32004KT 10SM OVC032 21/12 A3013 RMK AO2 SLP203 T02060117 =
  • KPBF 192053Z AUTO 21003KT 10SM BKN043 22/11 A3013 RMK AO2 SLP203 T02170111 56027 =
  • KPBF 191953Z AUTO 33003KT 10SM OVC040 21/11 A3015 RMK AO2 SLP208 T02110106 =
  • KPBF 191853Z AUTO 21004KT 10SM FEW033 22/09 A3018 RMK AO2 SLP217 T02170094 =
  • KPBF 191753Z AUTO 00000KT 10SM OVC033 21/09 A3021 RMK AO2 SLP230 T02110089 10211 20094 58019 =
  • KPBF 191653Z AUTO 00000KT 10SM CLR 18/08 A3024 RMK AO2 SLP239 T01830083 =
    ________________________________________